createdAt,value
2023-05-23T00:00:59.819Z,4.50
2023-05-23T00:03:27.739Z,4.50
2023-05-23T00:06:12.021Z,5.00
2023-05-23T00:08:53.669Z,8.00
2023-05-23T00:11:47.451Z,9.50
2023-05-23T00:14:36.071Z,8.00
2023-05-23T00:17:03.144Z,9.00
2023-05-23T00:19:30.325Z,9.25
2023-05-23T00:21:58.859Z,8.75
2023-05-23T00:24:26.071Z,6.50
2023-05-23T00:26:53.082Z,4.00
2023-05-23T00:29:20.077Z,3.00
2023-05-23T00:31:47.336Z,2.50
2023-05-23T00:34:20.346Z,4.00
2023-05-23T00:36:50.711Z,3.00
2023-05-23T00:39:21.367Z,4.25
2023-05-23T00:41:53.256Z,2.50
2023-05-23T00:44:22.145Z,3.00
2023-05-23T00:46:55.604Z,4.50
2023-05-23T00:49:23.223Z,4.50
2023-05-23T00:51:52.337Z,2.00
2023-05-23T00:54:31.376Z,5.25
2023-05-23T00:56:58.766Z,2.25
2023-05-23T00:59:26.618Z,4.50
2023-05-23T01:01:56.375Z,3.00
2023-05-23T01:04:34.516Z,1.75
2023-05-23T01:07:12.910Z,2.50
2023-05-23T01:10:01.853Z,3.00
2023-05-23T01:12:49.139Z,2.00
2023-05-23T01:15:59.798Z,2.00
2023-05-23T01:18:52.089Z,2.00
2023-05-23T01:21:22.814Z,3.00
2023-05-23T01:24:11.444Z,3.75
2023-05-23T01:26:50.492Z,3.00
2023-05-23T01:29:28.346Z,4.50
2023-05-23T01:31:58.666Z,2.00
2023-05-23T01:34:25.977Z,3.75
2023-05-23T01:36:56.632Z,1.50
2023-05-23T01:39:24.511Z,4.00
2023-05-23T01:41:53.315Z,7.75
2023-05-23T01:44:21.452Z,6.00
2023-05-23T01:46:49.008Z,5.00
2023-05-23T01:49:18.560Z,5.50
2023-05-23T01:51:46.657Z,2.00
2023-05-23T01:54:17.251Z,3.75
2023-05-23T01:56:45.260Z,3.00
2023-05-23T01:59:12.850Z,2.25
2023-05-23T02:01:40.183Z,1.00
2023-05-23T02:04:07.320Z,5.25
2023-05-23T02:06:34.576Z,10.00
2023-05-23T02:09:01.769Z,10.25
2023-05-23T02:11:28.728Z,12.75
2023-05-23T02:13:55.832Z,12.50
2023-05-23T02:16:23.536Z,13.00
2023-05-23T02:18:53.046Z,9.75
2023-05-23T02:21:20.236Z,9.50
2023-05-23T02:23:47.276Z,7.25
2023-05-23T02:26:14.225Z,8.50
2023-05-23T02:28:41.607Z,9.75
2023-05-23T02:31:08.614Z,8.75
2023-05-23T02:33:35.709Z,11.75
2023-05-23T02:36:03.422Z,10.00
2023-05-23T02:38:31.129Z,7.50
2023-05-23T02:40:58.285Z,8.00
2023-05-23T02:43:25.243Z,8.00
2023-05-23T02:45:52.205Z,3.75
2023-05-23T02:48:19.168Z,5.75
2023-05-23T02:50:46.298Z,5.75
2023-05-23T02:53:13.480Z,8.25
2023-05-23T02:55:40.657Z,11.75
2023-05-23T02:58:07.862Z,7.00
2023-05-23T03:00:35.164Z,8.75
2023-05-23T03:03:02.887Z,17.50
2023-05-23T03:05:30.204Z,12.50
2023-05-23T03:07:58.138Z,18.00
2023-05-23T03:10:25.239Z,11.00
2023-05-23T03:12:52.255Z,9.50
2023-05-23T03:15:19.375Z,6.00
2023-05-23T03:17:46.443Z,8.00
2023-05-23T03:20:13.521Z,8.00
2023-05-23T03:22:42.805Z,7.00
2023-05-23T03:25:10.266Z,5.00
2023-05-23T03:27:37.349Z,10.00
2023-05-23T03:30:05.244Z,18.75
2023-05-23T03:32:32.384Z,16.50
2023-05-23T03:34:59.392Z,15.50
2023-05-23T03:37:26.408Z,13.50
2023-05-23T03:39:53.380Z,16.75
2023-05-23T03:42:20.400Z,14.25
2023-05-23T03:44:47.383Z,14.25
2023-05-23T03:47:14.457Z,15.75
2023-05-23T03:49:41.433Z,15.25
2023-05-23T03:52:08.530Z,13.00
2023-05-23T03:54:35.665Z,14.50
2023-05-23T03:57:03.230Z,17.25
2023-05-23T03:59:30.408Z,17.00
2023-05-23T04:01:59.260Z,14.50
2023-05-23T04:04:26.607Z,16.50
2023-05-23T04:06:53.997Z,18.75
2023-05-23T04:09:21.050Z,17.00
2023-05-23T04:11:48.753Z,18.00
2023-05-23T04:14:15.791Z,18.75
2023-05-23T04:16:42.909Z,13.75
2023-05-23T04:19:10.006Z,16.50
2023-05-23T04:21:37.177Z,8.25
2023-05-23T04:24:04.285Z,12.50
2023-05-23T04:26:31.242Z,14.75
2023-05-23T04:28:59.497Z,14.25
2023-05-23T04:31:26.578Z,12.25
2023-05-23T04:33:53.550Z,15.00
2023-05-23T04:36:20.538Z,13.75
2023-05-23T04:38:47.454Z,11.25
2023-05-23T04:41:16.672Z,14.25
2023-05-23T04:43:44.594Z,11.25
2023-05-23T04:46:14.166Z,12.50
2023-05-23T04:48:42.948Z,15.00
2023-05-23T04:51:10.009Z,16.00
2023-05-23T04:53:37.321Z,16.75
2023-05-23T04:56:04.414Z,12.75
2023-05-23T04:58:32.108Z,16.00
2023-05-23T05:00:59.070Z,12.25
2023-05-23T05:03:26.612Z,12.50
2023-05-23T05:05:54.026Z,12.50
2023-05-23T05:08:21.018Z,13.50
2023-05-23T05:10:48.205Z,17.25
2023-05-23T05:13:15.212Z,13.00
2023-05-23T05:15:42.890Z,11.75
2023-05-23T05:18:09.870Z,20.50
2023-05-23T05:20:36.880Z,13.75
2023-05-23T05:23:03.848Z,10.25
2023-05-23T05:25:32.612Z,12.50
2023-05-23T05:28:06.252Z,10.00
2023-05-23T05:30:35.506Z,16.75
2023-05-23T05:33:04.425Z,15.50
2023-05-23T05:35:32.813Z,15.25
2023-05-23T05:38:00.708Z,16.25
2023-05-23T05:40:27.656Z,14.00
2023-05-23T05:42:54.640Z,12.25
2023-05-23T05:45:21.591Z,15.50
2023-05-23T05:47:48.568Z,15.33
2023-05-23T05:50:15.540Z,16.00
2023-05-23T05:52:42.597Z,14.00
2023-05-23T05:55:13.973Z,14.33
2023-05-23T05:57:42.071Z,9.67
2023-05-23T06:00:15.203Z,13.00
2023-05-23T06:02:49.079Z,12.67
2023-05-23T06:05:18.942Z,17.00
2023-05-23T06:07:48.339Z,13.00
2023-05-23T06:10:15.325Z,11.33
2023-05-23T06:12:43.320Z,10.00
2023-05-23T06:15:10.747Z,12.00
2023-05-23T06:17:37.960Z,12.33
2023-05-23T06:20:05.415Z,15.67
2023-05-23T06:22:32.539Z,11.67
2023-05-23T06:24:59.668Z,11.00
2023-05-23T06:27:26.614Z,13.67
2023-05-23T06:29:53.701Z,17.00
2023-05-23T06:32:20.844Z,15.00
2023-05-23T06:34:47.839Z,10.00
2023-05-23T06:37:14.820Z,8.00
2023-05-23T06:39:41.885Z,9.00
2023-05-23T06:42:08.874Z,10.33
2023-05-23T06:44:35.956Z,9.67
2023-05-23T06:47:02.887Z,10.00
2023-05-23T06:49:29.880Z,2.00
2023-05-23T06:51:56.829Z,7.67
2023-05-23T06:54:23.772Z,9.00
2023-05-23T06:56:50.714Z,14.33
2023-05-23T06:59:17.660Z,9.33
2023-05-23T07:01:44.732Z,7.00
2023-05-23T07:04:12.529Z,11.33
2023-05-23T07:06:40.245Z,9.00
2023-05-23T07:09:07.218Z,12.00
2023-05-23T07:11:35.646Z,11.00
2023-05-23T07:14:02.621Z,16.33
2023-05-23T07:16:29.578Z,12.00
2023-05-23T07:18:56.567Z,10.00
2023-05-23T07:21:23.504Z,10.00
2023-05-23T07:23:50.449Z,7.67
2023-05-23T07:26:17.352Z,7.00
2023-05-23T07:28:44.360Z,9.00
2023-05-23T07:31:12.272Z,5.67
2023-05-23T07:33:39.282Z,8.33
2023-05-23T07:36:06.390Z,7.67
2023-05-23T07:38:33.350Z,8.33
2023-05-23T07:41:10.934Z,8.67
2023-05-23T07:43:39.439Z,6.00
2023-05-23T07:46:06.681Z,4.00
2023-05-23T07:48:33.738Z,6.33
2023-05-23T07:51:01.456Z,10.33
2023-05-23T07:53:28.443Z,16.00
2023-05-23T07:55:55.382Z,10.00
2023-05-23T07:58:23.468Z,11.33
2023-05-23T08:00:52.619Z,10.00
2023-05-23T08:03:20.346Z,13.00
2023-05-23T08:05:47.608Z,11.00
2023-05-23T08:08:14.587Z,9.67
2023-05-23T08:10:41.916Z,7.00
2023-05-23T08:13:12.114Z,10.00
2023-05-23T08:15:39.066Z,8.00
2023-05-23T08:18:06.573Z,10.00
2023-05-23T08:20:33.581Z,6.33
2023-05-23T08:23:01.770Z,8.67
2023-05-23T08:25:32.654Z,6.67
2023-05-23T08:28:00.873Z,7.67
2023-05-23T08:30:29.099Z,5.00
2023-05-23T08:32:57.235Z,6.00
2023-05-23T08:35:24.650Z,5.00
2023-05-23T08:37:52.745Z,6.00
2023-05-23T08:40:23.707Z,5.00
2023-05-23T08:42:51.532Z,9.33
2023-05-23T08:45:18.936Z,8.00
2023-05-23T08:47:47.483Z,9.00
2023-05-23T08:50:18.023Z,11.67
2023-05-23T08:52:59.502Z,9.33
2023-05-23T08:55:29.576Z,6.33
2023-05-23T08:58:01.802Z,8.00
2023-05-23T09:00:29.439Z,4.33
2023-05-23T09:02:57.678Z,4.67
2023-05-23T09:05:26.689Z,5.00
2023-05-23T09:07:55.274Z,6.33
2023-05-23T09:10:22.766Z,6.33
2023-05-23T09:12:50.190Z,9.67
2023-05-23T09:15:17.597Z,7.33
2023-05-23T09:17:45.675Z,6.67
2023-05-23T09:20:15.449Z,5.67
2023-05-23T09:22:48.152Z,8.00
2023-05-23T09:25:15.560Z,8.67
2023-05-23T09:27:45.702Z,8.00
2023-05-23T09:30:15.122Z,8.33
2023-05-23T09:32:42.667Z,8.00
2023-05-23T09:35:14.506Z,7.33
2023-05-23T09:37:47.115Z,4.00
2023-05-23T09:40:15.514Z,4.00
2023-05-23T09:42:44.658Z,8.33
2023-05-23T09:45:15.595Z,9.33
2023-05-23T09:47:54.592Z,5.67
2023-05-23T09:50:22.748Z,5.00
2023-05-23T09:52:49.972Z,4.67
2023-05-23T09:55:17.128Z,4.00
2023-05-23T09:57:44.984Z,5.00
2023-05-23T10:00:14.107Z,2.67
2023-05-23T10:03:08.607Z,3.33
2023-05-23T10:05:46.672Z,4.67
2023-05-23T10:08:19.794Z,3.00
2023-05-23T10:10:58.838Z,3.00
2023-05-23T10:13:29.557Z,8.00
2023-05-23T10:16:03.320Z,8.33
2023-05-23T10:18:34.893Z,3.33
2023-05-23T10:21:09.854Z,6.67
2023-05-23T10:23:38.440Z,7.00
2023-05-23T10:26:06.386Z,5.67
2023-05-23T10:28:33.829Z,6.00
2023-05-23T10:31:00.814Z,6.33
2023-05-23T10:33:33.455Z,8.00
2023-05-23T10:36:12.828Z,5.00
2023-05-23T10:39:20.755Z,9.00
2023-05-23T10:42:05.151Z,11.00
2023-05-23T10:44:32.590Z,8.33
2023-05-23T10:47:04.758Z,11.67
2023-05-23T10:49:44.993Z,6.67
2023-05-23T10:52:14.505Z,7.00
2023-05-23T10:54:52.771Z,6.67
2023-05-23T10:57:22.129Z,6.00
2023-05-23T10:59:52.290Z,4.33
2023-05-23T11:02:26.337Z,5.67
2023-05-23T11:05:23.117Z,5.33
2023-05-23T11:08:10.177Z,7.00
2023-05-23T11:10:57.145Z,6.00
2023-05-23T11:13:24.127Z,4.00
2023-05-23T11:15:51.969Z,5.33
2023-05-23T11:18:28.232Z,7.00
2023-05-23T11:20:55.579Z,6.00
2023-05-23T11:23:23.257Z,6.00
2023-05-23T11:25:52.502Z,11.00
2023-05-23T11:28:20.656Z,11.67
2023-05-23T11:30:51.345Z,10.00
2023-05-23T11:33:19.046Z,6.00
2023-05-23T11:35:48.772Z,6.33
2023-05-23T11:38:17.419Z,9.67
2023-05-23T11:40:46.792Z,7.33
2023-05-23T11:43:17.004Z,12.33
2023-05-23T11:45:47.083Z,13.33
2023-05-23T11:48:18.152Z,10.67
2023-05-23T11:50:50.397Z,7.33
2023-05-23T11:53:20.936Z,8.00
2023-05-23T11:55:55.458Z,6.67
2023-05-23T11:58:26.547Z,7.00
2023-05-23T12:00:58.636Z,7.67
2023-05-23T12:03:25.721Z,5.67
2023-05-23T12:05:52.889Z,5.67
2023-05-23T12:08:19.892Z,4.00
2023-05-23T12:11:00.749Z,5.00
2023-05-23T12:13:30.867Z,8.33
2023-05-23T12:16:00.539Z,7.00
2023-05-23T12:18:32.872Z,5.67
2023-05-23T12:21:11.052Z,5.00
2023-05-23T12:23:39.874Z,3.67
2023-05-23T12:26:07.929Z,3.00
2023-05-23T12:28:43.822Z,3.67
2023-05-23T12:31:11.094Z,11.00
2023-05-23T12:33:44.284Z,11.00
2023-05-23T12:36:15.894Z,6.67
2023-05-23T12:38:46.345Z,9.67
2023-05-23T12:41:17.324Z,11.33
2023-05-23T12:43:55.224Z,8.00
2023-05-23T12:46:23.997Z,13.00
2023-05-23T12:48:51.499Z,10.00
2023-05-23T12:51:18.823Z,12.67
2023-05-23T12:53:46.182Z,16.00
2023-05-23T12:56:13.303Z,16.00
2023-05-23T12:58:40.278Z,13.33
2023-05-23T13:01:07.290Z,18.00
2023-05-23T13:03:34.415Z,16.67
2023-05-23T13:06:01.828Z,19.00
2023-05-23T13:08:29.746Z,19.00
2023-05-23T13:10:57.553Z,26.33
2023-05-23T13:13:25.000Z,15.67
2023-05-23T13:15:52.382Z,23.00
2023-05-23T13:18:19.523Z,22.50
2023-05-23T13:20:46.755Z,22.00
2023-05-23T13:23:14.218Z,25.25
2023-05-23T13:25:41.486Z,21.25
2023-05-23T13:28:08.902Z,23.75
2023-05-23T13:30:36.022Z,20.50
2023-05-23T13:33:03.351Z,21.75
2023-05-23T13:35:30.316Z,19.50
2023-05-23T13:37:57.354Z,21.00
2023-05-23T13:40:24.362Z,20.00
2023-05-23T13:42:52.249Z,23.25
2023-05-23T13:45:20.369Z,23.50
2023-05-23T13:47:47.621Z,18.75
2023-05-23T13:50:14.827Z,18.50
2023-05-23T13:52:44.819Z,15.75
2023-05-23T13:55:13.561Z,13.00
2023-05-23T13:57:40.598Z,18.50
2023-05-23T14:00:09.751Z,19.75
2023-05-23T14:02:36.894Z,15.50
2023-05-23T14:05:04.311Z,13.50
2023-05-23T14:07:31.728Z,13.75
2023-05-23T14:09:59.982Z,12.75
2023-05-23T14:12:27.005Z,11.00
2023-05-23T14:14:53.978Z,7.67
2023-05-23T14:17:21.253Z,7.67
2023-05-23T14:19:48.482Z,6.00
2023-05-23T14:22:15.731Z,6.67
2023-05-23T14:24:42.776Z,19.00
2023-05-23T14:27:11.239Z,14.50
2023-05-23T14:29:39.109Z,16.50
2023-05-23T14:32:06.717Z,10.00
2023-05-23T14:34:33.946Z,9.00
2023-05-23T14:37:01.380Z,5.33
2023-05-23T14:39:29.331Z,8.33
2023-05-23T14:41:56.571Z,5.33
2023-05-23T14:44:23.792Z,6.33
2023-05-23T14:46:50.910Z,5.00
2023-05-23T14:49:18.260Z,5.00
2023-05-23T14:51:50.751Z,6.00
2023-05-23T14:54:19.330Z,5.00
2023-05-23T14:56:46.676Z,5.00
2023-05-23T14:59:14.098Z,8.00
2023-05-23T15:01:41.997Z,8.00
2023-05-23T15:04:10.005Z,6.00
2023-05-23T15:06:38.834Z,6.33
2023-05-23T15:09:06.393Z,9.00
2023-05-23T15:11:35.256Z,13.67
2023-05-23T15:14:02.312Z,13.67
2023-05-23T15:16:33.081Z,10.00
2023-05-23T15:19:00.491Z,8.33
2023-05-23T15:21:27.555Z,5.67
2023-05-23T15:23:54.911Z,10.00
2023-05-23T15:26:22.791Z,18.25
2023-05-23T15:28:49.888Z,23.00
2023-05-23T15:31:16.991Z,23.67
2023-05-23T15:33:44.061Z,20.50
2023-05-23T15:36:13.427Z,16.25
2023-05-23T15:38:40.607Z,19.00
2023-05-23T15:41:07.661Z,17.75
2023-05-23T15:43:38.089Z,16.25
2023-05-23T15:46:05.711Z,14.50
2023-05-23T15:48:32.974Z,12.00
2023-05-23T15:50:59.953Z,14.00
2023-05-23T15:53:27.052Z,13.25
2023-05-23T15:55:54.032Z,13.75
2023-05-23T15:58:21.127Z,9.00
2023-05-23T16:00:48.204Z,9.00
2023-05-23T16:03:15.221Z,8.00
2023-05-23T16:05:42.549Z,7.00
2023-05-23T16:08:09.677Z,6.00
2023-05-23T16:10:36.733Z,6.00
2023-05-23T16:13:04.359Z,8.33
2023-05-23T16:15:31.485Z,6.33
2023-05-23T16:17:59.029Z,5.00
2023-05-23T16:20:26.324Z,6.00
2023-05-23T16:22:53.302Z,6.00
2023-05-23T16:25:20.373Z,10.00
2023-05-23T16:27:47.330Z,14.00
2023-05-23T16:30:14.457Z,16.50
2023-05-23T16:32:41.608Z,17.00
2023-05-23T16:35:11.192Z,15.33
2023-05-23T16:37:38.961Z,15.00
2023-05-23T16:40:06.817Z,15.67
2023-05-23T16:42:34.063Z,27.00
2023-05-23T16:45:01.090Z,22.00
2023-05-23T16:47:28.162Z,18.00
2023-05-23T16:49:55.259Z,17.75
2023-05-23T16:52:22.537Z,14.00
2023-05-23T16:54:49.676Z,16.00
2023-05-23T16:57:16.630Z,18.25
2023-05-23T16:59:43.708Z,13.67
2023-05-23T17:02:15.333Z,13.33
2023-05-23T17:04:42.478Z,7.67
2023-05-23T17:07:09.771Z,6.67
2023-05-23T17:09:36.972Z,7.00
2023-05-23T17:12:04.060Z,8.00
2023-05-23T17:14:31.259Z,8.33
2023-05-23T17:16:58.261Z,5.00
2023-05-23T17:19:26.043Z,8.00
2023-05-23T17:21:53.131Z,10.33
2023-05-23T17:24:20.080Z,10.67
2023-05-23T17:26:47.088Z,13.75
2023-05-23T17:29:14.064Z,15.33
2023-05-23T17:31:41.177Z,12.00
2023-05-23T17:34:08.230Z,12.00
2023-05-23T17:36:35.386Z,12.00
2023-05-23T17:39:02.457Z,14.33
2023-05-23T17:41:29.439Z,23.50
2023-05-23T17:43:56.395Z,18.75
2023-05-23T17:46:23.543Z,19.50
2023-05-23T17:48:50.472Z,21.50
2023-05-23T17:51:17.469Z,20.25
2023-05-23T17:53:44.451Z,20.75
2023-05-23T17:56:11.446Z,26.25
2023-05-23T17:58:40.964Z,29.00
2023-05-23T18:01:09.586Z,24.25
2023-05-23T18:03:36.498Z,22.75
2023-05-23T18:06:03.406Z,23.50
2023-05-23T18:08:30.442Z,21.75
2023-05-23T18:10:57.482Z,22.50
2023-05-23T18:13:24.447Z,19.25
2023-05-23T18:15:51.441Z,17.00
2023-05-23T18:18:18.525Z,13.50
2023-05-23T18:20:45.772Z,21.25
2023-05-23T18:23:12.920Z,20.25
2023-05-23T18:25:39.857Z,12.00
2023-05-23T18:28:06.873Z,21.00
2023-05-23T18:30:33.957Z,23.00
2023-05-23T18:33:01.284Z,11.50
2023-05-23T18:35:28.439Z,13.00
2023-05-23T18:37:55.556Z,14.00
2023-05-23T18:40:24.866Z,12.00
2023-05-23T18:42:52.315Z,7.67
2023-05-23T18:45:19.350Z,9.75
2023-05-23T18:47:46.579Z,10.75
2023-05-23T18:50:13.890Z,5.00
2023-05-23T18:52:41.140Z,20.75
2023-05-23T18:55:08.670Z,16.00
2023-05-23T18:57:54.431Z,21.75
2023-05-23T19:00:21.812Z,16.00
2023-05-23T19:05:36.865Z,9.75
2023-05-23T19:08:03.934Z,10.00
2023-05-23T19:10:31.085Z,13.75
2023-05-23T19:12:58.066Z,12.33
2023-05-23T19:15:25.089Z,8.25
2023-05-23T19:17:52.009Z,9.33
2023-05-23T19:20:20.284Z,11.25
2023-05-23T19:22:51.752Z,9.33
2023-05-23T19:25:20.322Z,10.00
2023-05-23T19:27:47.272Z,10.00
2023-05-23T19:30:14.231Z,5.33
2023-05-23T19:32:41.479Z,7.67
2023-05-23T19:35:09.106Z,8.50
2023-05-23T19:37:36.101Z,12.75
2023-05-23T19:40:06.814Z,8.00
2023-05-23T19:42:34.405Z,7.75
2023-05-23T19:45:01.384Z,9.25
2023-05-23T19:47:30.233Z,9.00
2023-05-23T19:49:58.140Z,7.75
2023-05-23T19:52:25.122Z,10.00
2023-05-23T19:54:52.218Z,8.00
2023-05-23T19:57:19.222Z,9.00
2023-05-23T19:59:46.483Z,8.00
2023-05-23T20:02:14.057Z,7.00
2023-05-23T20:04:41.319Z,7.33
2023-05-23T20:07:08.297Z,5.00
2023-05-23T20:09:35.272Z,6.00
2023-05-23T20:12:02.577Z,7.00
2023-05-23T20:14:31.655Z,7.00
2023-05-23T20:16:58.915Z,5.00
2023-05-23T20:19:26.001Z,7.50
2023-05-23T20:21:53.179Z,4.00
2023-05-23T20:24:20.133Z,4.33
2023-05-23T20:26:47.100Z,4.00
2023-05-23T20:29:14.161Z,4.00
2023-05-23T20:31:41.311Z,6.33
2023-05-23T20:34:08.621Z,4.00
2023-05-23T20:36:35.574Z,5.00
2023-05-23T20:39:02.518Z,6.33
2023-05-23T20:41:29.888Z,6.00
2023-05-23T20:43:57.091Z,1.00
2023-05-23T20:46:24.066Z,9.25
2023-05-23T20:48:51.019Z,7.75
2023-05-23T20:51:18.862Z,5.75
2023-05-23T20:53:45.964Z,8.00
2023-05-23T20:56:13.135Z,4.33
2023-05-23T20:58:41.097Z,5.00
2023-05-23T21:01:08.294Z,6.50
2023-05-23T21:03:35.512Z,5.67
2023-05-23T21:06:02.524Z,7.67
2023-05-23T21:08:29.985Z,6.25
2023-05-23T21:10:58.079Z,6.00
2023-05-23T21:13:25.027Z,5.00
2023-05-23T21:15:52.006Z,6.00
2023-05-23T21:18:18.973Z,4.00
2023-05-23T21:20:46.255Z,8.00
2023-05-23T21:23:13.165Z,6.33
2023-05-23T21:25:40.139Z,6.67
2023-05-23T21:28:07.135Z,8.00
2023-05-23T21:30:34.495Z,5.75
2023-05-23T21:33:01.666Z,6.00
2023-05-23T21:35:28.763Z,5.00
2023-05-23T21:37:55.814Z,6.00
2023-05-23T21:40:23.334Z,7.33
2023-05-23T21:42:50.578Z,6.33
2023-05-23T21:45:17.862Z,5.67
2023-05-23T21:47:44.840Z,5.00
2023-05-23T21:50:11.896Z,6.00
2023-05-23T21:52:38.874Z,3.67
2023-05-23T21:55:06.181Z,6.67
2023-05-23T21:57:33.273Z,4.67
2023-05-23T22:00:00.222Z,3.33
2023-05-23T22:02:27.120Z,5.00
2023-05-23T22:04:53.974Z,4.00
2023-05-23T22:07:25.485Z,4.00
2023-05-23T22:09:53.589Z,4.00
2023-05-23T22:12:20.715Z,4.67
2023-05-23T22:14:47.612Z,4.33
2023-05-23T22:17:14.433Z,1.00
2023-05-23T22:22:09.962Z,3.67
2023-05-23T22:24:36.782Z,7.33
2023-05-23T22:27:04.457Z,5.00
2023-05-23T22:29:31.294Z,4.00
2023-05-23T22:31:58.252Z,8.00
2023-05-23T22:34:25.231Z,6.00
2023-05-23T22:36:52.382Z,5.33
2023-05-23T22:39:19.297Z,4.33
2023-05-23T22:41:46.220Z,5.00
2023-05-23T22:44:13.044Z,5.00
2023-05-23T22:46:42.968Z,7.33
2023-05-23T22:49:10.496Z,5.33
2023-05-23T22:51:37.341Z,7.25
2023-05-23T22:54:04.221Z,4.33
2023-05-23T22:56:31.086Z,2.67
2023-05-23T22:58:57.948Z,6.00
2023-05-23T23:01:24.857Z,4.67
2023-05-23T23:03:51.750Z,4.67
2023-05-23T23:06:21.148Z,6.00
2023-05-23T23:08:48.076Z,3.33
2023-05-23T23:11:14.910Z,3.67
2023-05-23T23:13:41.708Z,4.00
2023-05-23T23:16:08.882Z,5.67
2023-05-23T23:18:35.862Z,6.00
2023-05-23T23:21:02.733Z,4.00
2023-05-23T23:23:29.615Z,6.00
2023-05-23T23:25:56.477Z,5.67
2023-05-23T23:28:23.347Z,5.00
2023-05-23T23:30:52.482Z,8.00
2023-05-23T23:33:20.019Z,6.75
2023-05-23T23:35:49.021Z,6.67
2023-05-23T23:38:16.535Z,6.75
2023-05-23T23:40:45.789Z,5.00
2023-05-23T23:43:13.756Z,8.00
2023-05-23T23:45:40.868Z,4.50
2023-05-23T23:48:07.923Z,6.33
2023-05-23T23:50:34.887Z,6.00
2023-05-23T23:53:01.852Z,7.25
2023-05-23T23:55:28.781Z,7.50
2023-05-23T23:57:55.902Z,5.00
